sensor_id;sensor_type;location;lat;lon;timestamp;temperature;humidity
30467;DHT22;17258;52.560;13.046;2023-02-11T00:04:38;7.90;60.40
30467;DHT22;17258;52.560;13.046;2023-02-11T00:14:39;7.90;60.50
30467;DHT22;17258;52.560;13.046;2023-02-11T00:24:39;7.90;60.60
30467;DHT22;17258;52.560;13.046;2023-02-11T00:34:40;8.00;60.90
30467;DHT22;17258;52.560;13.046;2023-02-11T00:44:41;8.10;61.10
30467;DHT22;17258;52.560;13.046;2023-02-11T00:54:41;8.20;61.10
30467;DHT22;17258;52.560;13.046;2023-02-11T01:04:42;8.30;61.00
30467;DHT22;17258;52.560;13.046;2023-02-11T01:14:43;8.40;60.90
30467;DHT22;17258;52.560;13.046;2023-02-11T01:24:43;8.60;60.90
30467;DHT22;17258;52.560;13.046;2023-02-11T01:34:44;8.60;60.70
30467;DHT22;17258;52.560;13.046;2023-02-11T01:44:47;8.60;60.70
30467;DHT22;17258;52.560;13.046;2023-02-11T01:54:53;8.70;60.70
30467;DHT22;17258;52.560;13.046;2023-02-11T02:15:51;8.70;60.70
30467;DHT22;17258;52.560;13.046;2023-02-11T02:27:09;8.80;60.80
30467;DHT22;17258;52.560;13.046;2023-02-11T02:37:11;8.70;60.80
30467;DHT22;17258;52.560;13.046;2023-02-11T02:47:14;8.80;60.80
30467;DHT22;17258;52.560;13.046;2023-02-11T03:08:00;8.90;60.80
30467;DHT22;17258;52.560;13.046;2023-02-11T03:18:06;9.00;60.80
30467;DHT22;17258;52.560;13.046;2023-02-11T03:28:17;9.00;60.90
30467;DHT22;17258;52.560;13.046;2023-02-11T03:38:30;9.10;60.90
30467;DHT22;17258;52.560;13.046;2023-02-11T03:48:39;9.10;60.90
30467;DHT22;17258;52.560;13.046;2023-02-11T03:58:44;9.20;60.90
30467;DHT22;17258;52.560;13.046;2023-02-11T04:08:45;9.20;60.90
30467;DHT22;17258;52.560;13.046;2023-02-11T04:18:45;9.20;61.00
30467;DHT22;17258;52.560;13.046;2023-02-11T04:28:46;9.20;61.10
30467;DHT22;17258;52.560;13.046;2023-02-11T04:38:47;9.30;61.30
30467;DHT22;17258;52.560;13.046;2023-02-11T04:48:47;9.30;61.30
30467;DHT22;17258;52.560;13.046;2023-02-11T04:58:48;9.30;61.30
30467;DHT22;17258;52.560;13.046;2023-02-11T05:08:49;9.40;61.40
30467;DHT22;17258;52.560;13.046;2023-02-11T05:18:50;9.40;61.70
30467;DHT22;17258;52.560;13.046;2023-02-11T05:28:50;9.40;61.70
30467;DHT22;17258;52.560;13.046;2023-02-11T05:38:51;9.40;61.70
30467;DHT22;17258;52.560;13.046;2023-02-11T05:48:51;9.50;61.80
30467;DHT22;17258;52.560;13.046;2023-02-11T05:58:52;9.50;61.80
30467;DHT22;17258;52.560;13.046;2023-02-11T06:08:53;9.50;61.80
30467;DHT22;17258;52.560;13.046;2023-02-11T06:18:53;9.50;62.00
30467;DHT22;17258;52.560;13.046;2023-02-11T06:28:54;9.60;62.70
30467;DHT22;17258;52.560;13.046;2023-02-11T06:38:55;9.70;63.20
30467;DHT22;17258;52.560;13.046;2023-02-11T06:48:56;9.80;63.70
30467;DHT22;17258;52.560;13.046;2023-02-11T06:58:56;9.90;63.60
30467;DHT22;17258;52.560;13.046;2023-02-11T07:08:57;10.00;63.90
30467;DHT22;17258;52.560;13.046;2023-02-11T07:18:57;10.10;64.20
30467;DHT22;17258;52.560;13.046;2023-02-11T07:28:58;10.20;64.10
30467;DHT22;17258;52.560;13.046;2023-02-11T07:38:59;10.30;64.20
30467;DHT22;17258;52.560;13.046;2023-02-11T07:49:00;10.40;64.70
30467;DHT22;17258;52.560;13.046;2023-02-11T07:59:03;10.50;64.60
30467;DHT22;17258;52.560;13.046;2023-02-11T08:09:05;10.60;64.20
30467;DHT22;17258;52.560;13.046;2023-02-11T08:19:15;10.70;64.30
30467;DHT22;17258;52.560;13.046;2023-02-11T08:29:16;10.80;64.20
30467;DHT22;17258;52.560;13.046;2023-02-11T08:39:20;10.80;63.90
30467;DHT22;17258;52.560;13.046;2023-02-11T08:49:21;10.90;63.80
30467;DHT22;17258;52.560;13.046;2023-02-11T08:59:22;10.90;63.90
30467;DHT22;17258;52.560;13.046;2023-02-11T09:09:22;10.90;63.80
30467;DHT22;17258;52.560;13.046;2023-02-11T09:19:23;10.90;64.00
30467;DHT22;17258;52.560;13.046;2023-02-11T09:29:24;10.80;64.10
30467;DHT22;17258;52.560;13.046;2023-02-11T09:39:24;10.90;64.60
30467;DHT22;17258;52.560;13.046;2023-02-11T09:49:43;10.90;64.40
30467;DHT22;17258;52.560;13.046;2023-02-11T09:59:45;11.00;65.10
30467;DHT22;17258;52.560;13.046;2023-02-11T10:20:17;11.20;65.30
30467;DHT22;17258;52.560;13.046;2023-02-11T10:30:36;11.30;65.30
30467;DHT22;17258;52.560;13.046;2023-02-11T10:40:38;11.50;65.40
30467;DHT22;17258;52.560;13.046;2023-02-11T10:50:39;11.60;65.20
30467;DHT22;17258;52.560;13.046;2023-02-11T11:00:41;11.60;65.00
30467;DHT22;17258;52.560;13.046;2023-02-11T11:10:45;11.70;65.20
30467;DHT22;17258;52.560;13.046;2023-02-11T11:21:02;11.70;65.30
30467;DHT22;17258;52.560;13.046;2023-02-11T11:31:32;11.70;66.20
30467;DHT22;17258;52.560;13.046;2023-02-11T11:41:35;11.80;65.80
30467;DHT22;17258;52.560;13.046;2023-02-11T11:51:38;11.70;66.20
30467;DHT22;17258;52.560;13.046;2023-02-11T12:02:05;11.80;66.30
30467;DHT22;17258;52.560;13.046;2023-02-11T12:33:39;11.90;67.30
30467;DHT22;17258;52.560;13.046;2023-02-11T12:43:47;12.00;68.90
30467;DHT22;17258;52.560;13.046;2023-02-11T13:04:37;12.10;67.40
30467;DHT22;17258;52.560;13.046;2023-02-11T13:14:41;12.20;67.50
30467;DHT22;17258;52.560;13.046;2023-02-11T13:24:58;12.20;67.40
30467;DHT22;17258;52.560;13.046;2023-02-11T13:35:26;12.20;67.00
30467;DHT22;17258;52.560;13.046;2023-02-11T13:45:47;12.30;67.30
30467;DHT22;17258;52.560;13.046;2023-02-11T13:55:50;12.30;67.00
30467;DHT22;17258;52.560;13.046;2023-02-11T14:06:09;12.40;66.70
30467;DHT22;17258;52.560;13.046;2023-02-11T14:16:33;12.40;67.10
30467;DHT22;17258;52.560;13.046;2023-02-11T14:37:13;12.50;67.40
30467;DHT22;17258;52.560;13.046;2023-02-11T14:47:23;12.50;67.40
30467;DHT22;17258;52.560;13.046;2023-02-11T14:57:27;12.50;67.00
30467;DHT22;17258;52.560;13.046;2023-02-11T15:07:29;12.50;66.60
30467;DHT22;17258;52.560;13.046;2023-02-11T15:17:30;12.50;66.50
30467;DHT22;17258;52.560;13.046;2023-02-11T15:27:43;12.50;66.60
30467;DHT22;17258;52.560;13.046;2023-02-11T15:37:45;12.50;67.10
30467;DHT22;17258;52.560;13.046;2023-02-11T15:47:49;12.40;66.80
30467;DHT22;17258;52.560;13.046;2023-02-11T15:57:57;12.40;67.30
30467;DHT22;17258;52.560;13.046;2023-02-11T16:08:00;12.40;67.20
30467;DHT22;17258;52.560;13.046;2023-02-11T16:18:38;12.40;67.40
30467;DHT22;17258;52.560;13.046;2023-02-11T16:28:44;12.40;68.00
30467;DHT22;17258;52.560;13.046;2023-02-11T16:38:45;12.40;67.20
30467;DHT22;17258;52.560;13.046;2023-02-11T16:48:45;12.40;67.20
30467;DHT22;17258;52.560;13.046;2023-02-11T16:58:46;12.40;67.20
30467;DHT22;17258;52.560;13.046;2023-02-11T17:08:46;12.40;67.20
30467;DHT22;17258;52.560;13.046;2023-02-11T17:18:48;12.40;67.50
30467;DHT22;17258;52.560;13.046;2023-02-11T17:28:48;12.40;67.20
30467;DHT22;17258;52.560;13.046;2023-02-11T17:38:49;12.40;67.20
30467;DHT22;17258;52.560;13.046;2023-02-11T17:48:51;12.40;67.10
30467;DHT22;17258;52.560;13.046;2023-02-11T17:58:52;12.50;67.10
30467;DHT22;17258;52.560;13.046;2023-02-11T18:08:53;12.50;67.00
30467;DHT22;17258;52.560;13.046;2023-02-11T18:18:57;12.50;67.10
30467;DHT22;17258;52.560;13.046;2023-02-11T18:28:58;12.50;67.20
30467;DHT22;17258;52.560;13.046;2023-02-11T18:38:59;12.50;67.10
30467;DHT22;17258;52.560;13.046;2023-02-11T18:49:00;12.40;67.10
30467;DHT22;17258;52.560;13.046;2023-02-11T18:59:01;12.50;67.20
30467;DHT22;17258;52.560;13.046;2023-02-11T19:09:06;12.50;67.10
30467;DHT22;17258;52.560;13.046;2023-02-11T19:19:09;12.50;67.10
30467;DHT22;17258;52.560;13.046;2023-02-11T19:29:10;12.60;67.00
30467;DHT22;17258;52.560;13.046;2023-02-11T19:39:11;12.50;66.90
30467;DHT22;17258;52.560;13.046;2023-02-11T19:49:15;12.50;67.10
30467;DHT22;17258;52.560;13.046;2023-02-11T19:59:24;12.50;67.00
30467;DHT22;17258;52.560;13.046;2023-02-11T20:09:25;12.50;66.90
30467;DHT22;17258;52.560;13.046;2023-02-11T20:19:28;12.50;66.90
30467;DHT22;17258;52.560;13.046;2023-02-11T20:29:29;12.50;66.80
30467;DHT22;17258;52.560;13.046;2023-02-11T20:39:31;12.50;66.80
30467;DHT22;17258;52.560;13.046;2023-02-11T20:49:31;12.40;66.80
30467;DHT22;17258;52.560;13.046;2023-02-11T20:59:32;12.50;66.80
30467;DHT22;17258;52.560;13.046;2023-02-11T21:09:33;12.40;66.70
30467;DHT22;17258;52.560;13.046;2023-02-11T21:19:34;12.40;66.80
30467;DHT22;17258;52.560;13.046;2023-02-11T21:29:34;12.40;66.80
30467;DHT22;17258;52.560;13.046;2023-02-11T21:39:35;12.30;66.90
30467;DHT22;17258;52.560;13.046;2023-02-11T21:49:36;12.30;67.10
30467;DHT22;17258;52.560;13.046;2023-02-11T21:59:36;12.30;67.00
30467;DHT22;17258;52.560;13.046;2023-02-11T22:09:38;12.20;66.90
30467;DHT22;17258;52.560;13.046;2023-02-11T22:19:39;12.20;67.00
30467;DHT22;17258;52.560;13.046;2023-02-11T22:29:40;12.20;66.80
30467;DHT22;17258;52.560;13.046;2023-02-11T22:39:40;12.10;66.70
30467;DHT22;17258;52.560;13.046;2023-02-11T22:49:41;12.10;66.70
30467;DHT22;17258;52.560;13.046;2023-02-11T22:59:42;12.10;66.80
30467;DHT22;17258;52.560;13.046;2023-02-11T23:09:43;12.00;66.70
30467;DHT22;17258;52.560;13.046;2023-02-11T23:19:44;12.00;66.70
30467;DHT22;17258;52.560;13.046;2023-02-11T23:29:44;12.00;66.70
30467;DHT22;17258;52.560;13.046;2023-02-11T23:39:45;12.00;66.70
30467;DHT22;17258;52.560;13.046;2023-02-11T23:49:46;12.00;66.70
30467;DHT22;17258;52.560;13.046;2023-02-11T23:59:48;11.90;66.60
